createdAt,value
2023-04-30T04:05:23.580Z,99.90
2023-04-30T04:07:50.334Z,99.90
2023-04-30T04:10:17.001Z,99.90
2023-04-30T04:12:43.912Z,99.90
2023-04-30T04:15:10.929Z,99.90
2023-04-30T04:17:37.685Z,99.90
2023-04-30T04:20:06.357Z,99.90
2023-04-30T04:22:35.113Z,99.90
2023-04-30T04:25:05.044Z,99.90
2023-04-30T04:27:33.768Z,99.90
2023-04-30T04:30:00.512Z,99.90
2023-04-30T04:32:27.370Z,99.90
2023-04-30T04:34:54.388Z,99.90
2023-04-30T04:37:21.741Z,99.90
2023-04-30T04:39:48.601Z,99.90
2023-04-30T04:42:17.476Z,99.90
2023-04-30T04:44:44.186Z,99.90
2023-04-30T04:47:12.601Z,99.90
2023-04-30T04:49:39.444Z,99.90
2023-04-30T04:52:06.506Z,99.90
2023-04-30T04:54:33.682Z,99.90
2023-04-30T04:57:00.465Z,99.90
2023-04-30T04:59:27.226Z,99.90
2023-04-30T05:01:55.208Z,99.90
2023-04-30T05:04:22.044Z,99.90
2023-04-30T05:06:49.542Z,99.90
2023-04-30T05:09:16.301Z,99.90
2023-04-30T05:11:43.843Z,99.90
2023-04-30T05:14:10.599Z,99.90
2023-04-30T05:16:37.378Z,99.90
2023-04-30T05:19:04.164Z,99.90
2023-04-30T05:21:32.065Z,99.90
2023-04-30T05:23:58.813Z,99.90
2023-04-30T05:26:25.725Z,99.90
2023-04-30T05:28:52.537Z,99.90
2023-04-30T05:31:20.899Z,99.50
2023-04-30T05:33:48.365Z,98.30
2023-04-30T05:36:15.042Z,99.10
2023-04-30T05:38:42.464Z,99.80
2023-04-30T05:41:12.582Z,99.20
2023-04-30T05:43:39.293Z,99.50
2023-04-30T05:46:06.696Z,97.90
2023-04-30T05:48:33.828Z,98.30
2023-04-30T05:51:00.892Z,97.70
2023-04-30T05:53:27.719Z,98.40
2023-04-30T05:55:54.552Z,97.50
2023-04-30T05:58:21.265Z,97.90
2023-04-30T06:00:52.078Z,98.00
2023-04-30T06:03:19.394Z,97.80
2023-04-30T06:05:47.616Z,97.10
2023-04-30T06:08:14.462Z,98.10
2023-04-30T06:10:41.226Z,96.30
2023-04-30T06:13:08.024Z,97.20
2023-04-30T06:15:34.907Z,96.70
2023-04-30T06:18:01.692Z,95.90
2023-04-30T06:20:28.476Z,95.80
2023-04-30T06:22:55.194Z,95.20
2023-04-30T06:25:22.127Z,95.00
2023-04-30T06:27:48.955Z,95.10
2023-04-30T06:30:15.911Z,95.10
2023-04-30T06:32:42.590Z,94.40
2023-04-30T06:35:09.676Z,94.50
2023-04-30T06:37:37.881Z,92.90
2023-04-30T06:40:06.232Z,92.70
2023-04-30T06:42:34.698Z,94.00
2023-04-30T06:45:02.530Z,93.00
2023-04-30T06:47:34.536Z,91.80
2023-04-30T06:50:01.928Z,91.30
2023-04-30T06:52:31.010Z,91.90
2023-04-30T06:54:57.735Z,91.30
2023-04-30T06:57:25.604Z,90.60
2023-04-30T06:59:52.414Z,90.20
2023-04-30T07:02:21.821Z,91.00
2023-04-30T07:04:49.429Z,88.50
2023-04-30T07:07:16.307Z,88.70
2023-04-30T07:09:43.003Z,88.10
2023-04-30T07:12:11.672Z,88.90
2023-04-30T07:14:38.287Z,85.60
2023-04-30T07:17:05.248Z,89.80
2023-04-30T07:19:32.591Z,85.30
2023-04-30T07:21:59.346Z,86.20
2023-04-30T07:24:26.133Z,87.70
2023-04-30T07:26:52.892Z,88.40
2023-04-30T07:29:19.724Z,88.20
2023-04-30T07:31:46.544Z,90.40
2023-04-30T07:34:13.511Z,87.80
2023-04-30T07:36:42.886Z,88.60
2023-04-30T07:39:11.769Z,87.30
2023-04-30T07:41:38.620Z,85.60
2023-04-30T07:44:05.512Z,87.30
2023-04-30T07:46:32.321Z,87.90
2023-04-30T07:48:59.197Z,84.70
2023-04-30T07:51:26.871Z,85.20
2023-04-30T07:53:53.589Z,84.30
2023-04-30T07:56:20.357Z,85.50
2023-04-30T07:58:47.397Z,85.50
2023-04-30T08:01:15.117Z,85.40
2023-04-30T08:03:41.947Z,86.40
2023-04-30T08:06:08.714Z,87.40
2023-04-30T08:08:35.579Z,88.40
2023-04-30T08:11:02.920Z,84.40
2023-04-30T08:13:29.610Z,86.90
2023-04-30T08:15:56.328Z,85.80
2023-04-30T08:18:23.173Z,84.30
2023-04-30T08:20:50.012Z,84.50
2023-04-30T08:23:17.002Z,88.20
2023-04-30T08:25:43.776Z,87.90
2023-04-30T08:28:10.454Z,84.50
2023-04-30T08:30:37.149Z,80.70
2023-04-30T08:33:03.912Z,80.10
2023-04-30T08:35:31.102Z,81.50
2023-04-30T08:37:58.285Z,80.10
2023-04-30T08:40:43.372Z,80.50
2023-04-30T08:43:15.373Z,82.60
2023-04-30T08:45:42.627Z,77.10
2023-04-30T08:48:16.717Z,76.10
2023-04-30T08:50:43.660Z,76.40
2023-04-30T08:53:11.920Z,75.80
2023-04-30T08:55:41.075Z,77.00
2023-04-30T08:58:10.508Z,75.40
2023-04-30T09:00:40.464Z,73.70
2023-04-30T09:03:08.431Z,73.30
2023-04-30T09:05:37.009Z,76.70
2023-04-30T09:08:04.544Z,77.90
2023-04-30T09:10:35.721Z,78.30
2023-04-30T09:13:08.321Z,77.90
2023-04-30T09:15:36.964Z,78.80
2023-04-30T09:18:07.961Z,78.50
2023-04-30T09:20:35.331Z,75.80
2023-04-30T09:23:09.879Z,79.00
2023-04-30T09:25:43.284Z,78.70
2023-04-30T09:28:12.069Z,78.60
2023-04-30T09:30:39.971Z,79.80
2023-04-30T09:33:09.329Z,75.20
2023-04-30T09:35:40.013Z,74.10
2023-04-30T09:38:06.869Z,77.00
2023-04-30T09:40:36.645Z,77.70
2023-04-30T09:43:03.774Z,78.00
2023-04-30T09:45:44.711Z,78.40
2023-04-30T09:48:17.654Z,76.20
2023-04-30T09:50:46.069Z,73.50
2023-04-30T09:53:14.295Z,75.20
2023-04-30T09:55:45.995Z,76.10
2023-04-30T09:58:13.723Z,74.00
2023-04-30T10:00:42.106Z,73.20
2023-04-30T10:03:11.173Z,76.80
2023-04-30T10:05:47.575Z,73.90
2023-04-30T10:08:33.158Z,73.60
2023-04-30T10:11:05.376Z,72.70
2023-04-30T10:13:43.093Z,73.30
2023-04-30T10:16:24.115Z,72.90
2023-04-30T10:18:52.929Z,75.70
2023-04-30T10:21:24.499Z,75.90
2023-04-30T10:23:52.112Z,74.90
2023-04-30T10:26:19.274Z,73.10
2023-04-30T10:28:48.616Z,71.50
2023-04-30T10:31:16.615Z,73.40
2023-04-30T10:33:54.523Z,76.70
2023-04-30T10:36:50.401Z,74.30
2023-04-30T10:39:27.434Z,74.20
2023-04-30T10:42:06.253Z,76.30
2023-04-30T10:44:39.713Z,76.50
2023-04-30T10:47:07.738Z,76.80
2023-04-30T10:49:34.987Z,73.40
2023-04-30T10:52:05.180Z,73.70
2023-04-30T10:54:37.010Z,72.30
2023-04-30T10:57:14.814Z,71.90
2023-04-30T11:00:15.043Z,71.00
2023-04-30T11:02:48.593Z,71.90
2023-04-30T11:05:19.422Z,72.40
2023-04-30T11:07:49.087Z,76.60
2023-04-30T11:10:16.504Z,77.50
2023-04-30T11:12:54.069Z,74.30
2023-04-30T11:15:24.462Z,73.80
2023-04-30T11:17:51.974Z,75.50
2023-04-30T11:20:24.219Z,72.60
2023-04-30T11:23:21.849Z,72.80
2023-04-30T11:25:59.138Z,72.90
2023-04-30T11:28:50.126Z,70.50
2023-04-30T11:31:17.256Z,69.80
2023-04-30T11:33:43.934Z,71.20
2023-04-30T11:36:10.759Z,75.90
2023-04-30T11:38:37.768Z,74.50
2023-04-30T11:41:05.453Z,71.50
2023-04-30T11:43:33.962Z,69.60
2023-04-30T11:46:07.778Z,70.90
2023-04-30T11:48:39.210Z,67.30
2023-04-30T11:51:20.286Z,72.20
2023-04-30T11:53:48.870Z,70.30
2023-04-30T11:56:20.591Z,72.20
2023-04-30T11:58:48.585Z,75.60
2023-04-30T12:01:15.930Z,72.40
2023-04-30T12:03:48.655Z,70.00
2023-04-30T12:06:23.698Z,70.00
2023-04-30T12:08:54.492Z,69.00
2023-04-30T12:11:32.058Z,70.00
2023-04-30T12:14:03.436Z,73.00
2023-04-30T12:16:51.030Z,71.60
2023-04-30T12:19:22.342Z,70.10
2023-04-30T12:21:50.041Z,69.30
2023-04-30T12:24:18.912Z,72.20
2023-04-30T12:26:46.574Z,72.40
2023-04-30T12:29:18.513Z,73.80
2023-04-30T12:31:46.101Z,78.40
2023-04-30T12:34:13.919Z,73.00
2023-04-30T12:36:44.483Z,74.10
2023-04-30T12:39:16.085Z,73.50
2023-04-30T12:41:43.992Z,73.40
2023-04-30T12:44:18.307Z,73.40
2023-04-30T12:46:46.961Z,75.00
2023-04-30T12:49:29.363Z,76.30
2023-04-30T12:52:15.403Z,73.60
2023-04-30T12:54:42.104Z,74.60
2023-04-30T12:57:13.010Z,71.40
2023-04-30T12:59:58.943Z,71.10
2023-04-30T13:02:28.398Z,67.10
2023-04-30T13:04:55.311Z,70.80
2023-04-30T13:07:22.075Z,70.10
2023-04-30T13:09:48.787Z,69.70
2023-04-30T13:12:15.771Z,67.80
2023-04-30T13:14:42.573Z,66.10
2023-04-30T13:17:12.283Z,68.50
2023-04-30T13:19:39.285Z,69.40
2023-04-30T13:22:06.189Z,68.20
2023-04-30T13:24:32.989Z,69.60
2023-04-30T13:26:59.830Z,70.90
2023-04-30T13:29:26.783Z,70.30
2023-04-30T13:31:53.790Z,70.50
2023-04-30T13:34:20.652Z,72.40
2023-04-30T13:36:47.309Z,72.80
2023-04-30T13:39:14.117Z,68.70
2023-04-30T13:41:40.832Z,73.60
2023-04-30T13:44:07.494Z,70.10
2023-04-30T13:46:34.311Z,71.10
2023-04-30T13:49:01.150Z,73.40
2023-04-30T13:51:28.841Z,78.40
2023-04-30T13:53:55.559Z,72.30
2023-04-30T13:56:22.314Z,72.90
2023-04-30T13:58:48.984Z,73.10
2023-04-30T14:01:15.771Z,72.60
2023-04-30T14:03:42.636Z,73.90
2023-04-30T14:06:10.137Z,76.30
2023-04-30T14:08:36.991Z,75.00
2023-04-30T14:11:03.768Z,72.30
2023-04-30T14:13:30.566Z,69.50
2023-04-30T14:15:57.306Z,72.90
2023-04-30T14:18:24.137Z,71.20
2023-04-30T14:20:51.071Z,69.40
2023-04-30T14:23:17.961Z,71.20
2023-04-30T14:25:44.839Z,72.00
2023-04-30T14:28:11.929Z,70.20
2023-04-30T14:30:38.907Z,71.50
2023-04-30T14:33:05.706Z,71.90
2023-04-30T14:35:33.501Z,72.00
2023-04-30T14:38:00.319Z,71.70
2023-04-30T14:40:27.108Z,71.80
2023-04-30T14:42:53.751Z,72.90
2023-04-30T14:45:20.772Z,73.20
2023-04-30T14:47:47.566Z,74.90
2023-04-30T14:50:14.309Z,72.30
2023-04-30T14:52:42.141Z,72.20
2023-04-30T14:55:09.141Z,73.20
2023-04-30T14:57:36.457Z,75.00
2023-04-30T15:00:04.075Z,74.30
2023-04-30T15:02:30.951Z,73.10
2023-04-30T15:04:57.761Z,73.10
2023-04-30T15:07:24.504Z,74.10
2023-04-30T15:09:52.558Z,74.30
2023-04-30T15:12:20.067Z,74.20
2023-04-30T15:14:46.826Z,73.90
2023-04-30T15:17:13.616Z,75.60
2023-04-30T15:19:40.382Z,75.20
2023-04-30T15:22:07.805Z,77.00
2023-04-30T15:24:34.583Z,74.00
2023-04-30T15:27:01.848Z,76.60
2023-04-30T15:29:28.605Z,75.60
2023-04-30T15:31:56.172Z,78.00
2023-04-30T15:34:23.190Z,77.70
2023-04-30T15:36:50.106Z,78.30
2023-04-30T15:39:17.798Z,78.50
2023-04-30T15:41:47.367Z,78.70
2023-04-30T15:44:14.057Z,77.50
2023-04-30T15:46:41.391Z,77.00
2023-04-30T15:49:08.137Z,76.10
2023-04-30T15:51:36.244Z,79.50
2023-04-30T15:54:03.223Z,79.30
2023-04-30T15:56:30.495Z,81.70
2023-04-30T15:58:57.658Z,82.90
2023-04-30T16:01:24.379Z,85.40
2023-04-30T16:03:51.377Z,87.10
2023-04-30T16:06:19.799Z,87.00
2023-04-30T16:08:46.870Z,87.70
2023-04-30T16:11:13.580Z,89.40
2023-04-30T16:13:40.231Z,89.60
2023-04-30T16:16:08.767Z,90.70
2023-04-30T16:18:35.604Z,90.50
2023-04-30T16:21:02.624Z,91.00
2023-04-30T16:23:29.391Z,92.30
2023-04-30T16:25:56.464Z,92.70
2023-04-30T16:28:24.464Z,92.80
2023-04-30T16:30:51.183Z,93.20
2023-04-30T16:33:17.936Z,92.90
2023-04-30T16:35:44.791Z,93.20
2023-04-30T16:38:11.613Z,93.30
2023-04-30T16:40:38.309Z,94.00
2023-04-30T16:43:06.135Z,93.50
2023-04-30T16:45:33.316Z,94.20
2023-04-30T16:48:00.411Z,93.80
2023-04-30T16:50:27.244Z,93.70
2023-04-30T16:52:54.123Z,94.50
2023-04-30T16:55:21.360Z,95.40
2023-04-30T16:57:48.196Z,94.60
2023-04-30T17:00:16.790Z,94.00
2023-04-30T17:02:48.924Z,95.40
2023-04-30T17:05:16.556Z,96.30
2023-04-30T17:07:45.963Z,95.20
2023-04-30T17:10:13.223Z,94.80
2023-04-30T17:12:39.996Z,93.90
2023-04-30T17:15:07.362Z,95.60
2023-04-30T17:17:34.175Z,95.60
2023-04-30T17:20:00.908Z,96.20
2023-04-30T17:22:27.587Z,95.90
2023-04-30T17:24:54.360Z,96.50
2023-04-30T17:27:21.306Z,96.60
2023-04-30T17:29:48.486Z,97.40
2023-04-30T17:32:17.539Z,97.00
2023-04-30T17:34:44.365Z,97.40
2023-04-30T17:37:11.087Z,98.20
2023-04-30T17:39:37.785Z,97.90
2023-04-30T17:42:04.715Z,98.80
2023-04-30T17:44:31.944Z,98.40
2023-04-30T17:46:58.946Z,98.70
2023-04-30T17:49:26.535Z,99.40
2023-04-30T17:51:53.311Z,99.10
2023-04-30T17:54:20.135Z,99.40
2023-04-30T17:56:46.804Z,99.40
2023-04-30T17:59:13.523Z,99.60
2023-04-30T18:01:40.429Z,99.70
2023-04-30T18:04:08.523Z,99.70
2023-04-30T18:06:36.064Z,99.90
2023-04-30T18:09:04.115Z,99.90
2023-04-30T18:11:30.807Z,99.90
2023-04-30T18:13:57.466Z,99.90
2023-04-30T18:16:24.226Z,99.90
2023-04-30T18:18:50.963Z,99.90
2023-04-30T18:21:18.298Z,99.90
2023-04-30T18:23:44.924Z,99.90
2023-04-30T18:26:11.704Z,99.90
2023-04-30T18:28:38.346Z,99.90
2023-04-30T18:31:05.112Z,99.90
2023-04-30T18:33:31.841Z,99.90
2023-04-30T18:36:01.527Z,99.90
2023-04-30T18:38:29.757Z,99.90
2023-04-30T18:40:56.951Z,99.90
2023-04-30T18:43:24.137Z,99.90
2023-04-30T18:45:51.317Z,99.90
2023-04-30T18:48:22.838Z,99.90
2023-04-30T18:50:50.119Z,99.90
2023-04-30T18:53:17.691Z,99.90
2023-04-30T18:55:45.232Z,99.90
2023-04-30T18:58:12.194Z,99.90
2023-04-30T19:00:42.929Z,99.90
2023-04-30T19:03:10.327Z,99.90
2023-04-30T19:05:37.780Z,99.90
2023-04-30T19:08:04.636Z,99.90
2023-04-30T19:10:31.400Z,99.90
2023-04-30T19:12:58.243Z,99.90
2023-04-30T19:15:25.626Z,99.90
2023-04-30T19:17:52.451Z,99.90
2023-04-30T19:20:19.324Z,99.90
2023-04-30T19:22:46.779Z,99.90
2023-04-30T19:25:14.374Z,99.90
2023-04-30T19:27:41.511Z,99.90
2023-04-30T19:30:08.736Z,99.90
2023-04-30T19:32:36.836Z,99.90
2023-04-30T19:35:03.707Z,99.90
2023-04-30T19:37:31.036Z,99.90
2023-04-30T19:39:57.883Z,99.90
2023-04-30T19:42:24.731Z,99.90
2023-04-30T19:44:52.957Z,99.90
2023-04-30T19:47:25.927Z,99.90
2023-04-30T19:49:53.554Z,99.90
2023-04-30T19:52:20.683Z,99.90
2023-04-30T19:54:50.009Z,99.90
2023-04-30T19:57:19.882Z,99.90
2023-04-30T19:59:47.291Z,99.90
2023-04-30T20:02:14.877Z,99.90
2023-04-30T20:04:43.312Z,99.90
2023-04-30T20:07:10.056Z,99.90
2023-04-30T20:09:37.553Z,99.90
2023-04-30T20:12:04.691Z,99.90
2023-04-30T20:14:31.498Z,99.90
2023-04-30T20:16:58.410Z,99.90
2023-04-30T20:19:25.962Z,99.90
2023-04-30T20:21:53.949Z,99.90
2023-04-30T20:24:21.773Z,99.90
2023-04-30T20:26:48.547Z,99.90
2023-04-30T20:29:15.323Z,99.90
2023-04-30T20:31:42.234Z,99.90
2023-04-30T20:34:09.053Z,99.90
2023-04-30T20:36:35.932Z,99.90
2023-04-30T20:39:03.656Z,99.90
2023-04-30T20:41:30.440Z,99.90
2023-04-30T20:43:59.873Z,99.90
2023-04-30T20:46:28.330Z,99.90
2023-04-30T20:49:01.010Z,99.90
2023-04-30T20:51:28.486Z,99.90
2023-04-30T20:53:55.308Z,99.90
2023-04-30T20:56:22.499Z,99.90
2023-04-30T20:58:49.357Z,99.90
2023-04-30T21:01:16.276Z,99.90
2023-04-30T21:03:42.983Z,99.90
2023-04-30T21:06:10.904Z,99.90
2023-04-30T21:08:37.774Z,99.90
2023-04-30T21:11:04.761Z,99.90
2023-04-30T21:13:31.452Z,99.90
2023-04-30T21:15:58.130Z,99.90
2023-04-30T21:18:27.197Z,99.90
2023-04-30T21:20:53.922Z,99.90
2023-04-30T21:23:20.660Z,99.90
2023-04-30T21:25:47.645Z,99.90
2023-04-30T21:28:14.579Z,99.90
2023-04-30T21:30:41.450Z,99.90
2023-04-30T21:33:08.359Z,99.90
2023-04-30T21:35:35.093Z,99.90
2023-04-30T21:38:01.803Z,99.90
2023-04-30T21:40:32.284Z,99.90
2023-04-30T21:43:01.909Z,99.90
2023-04-30T21:45:28.654Z,99.90
2023-04-30T21:47:55.564Z,99.90
2023-04-30T21:50:23.681Z,99.90
2023-04-30T21:52:53.835Z,99.90
2023-04-30T21:55:20.770Z,99.90
2023-04-30T21:57:47.572Z,99.90
2023-04-30T22:00:16.154Z,99.90
2023-04-30T22:02:49.199Z,99.90
2023-04-30T22:05:16.554Z,99.90
2023-04-30T22:07:43.788Z,99.90
2023-04-30T22:10:10.966Z,99.90
2023-04-30T22:12:37.733Z,99.90
2023-04-30T22:15:06.380Z,99.90
2023-04-30T22:17:33.465Z,99.90
2023-04-30T22:20:00.343Z,99.90
2023-04-30T22:22:27.069Z,99.90
